McCallsburg, Iowa
Current Conditions -  °F | °C
As of 12:53 AM on Wednesday 22 Oct 2014 (Local Time) from KAMW Reporting Station
Clear Clear  
Wind Chill: 41°   Ceiling: Unl
Heat Index: 45°   Visibility: 10mi
Dew Point: 38°   Wind: 8mph
Humidity: 76%   Direction: 130°SE
Pressure: 30.18"   Gusts: NA
Location:  42.17°N, 93.39°W
Report Text: KAMW 220553Z AUTO 13007KT 10SM CLR 07/03 A3018 RMK AO2 SLP218 T00720033 10117 20061 401830017 50004
Loading
Personal Weather Stations






























Interactive Weather Map
Tropical Storm Tracking
New forecast layout! Learn more

10-Day Weather Forecast

Advertisements
Track Severe Weather on mobile